Arnold Line, Mississippi
Current Conditions -  °F | °C
As of 5:53 AM on Monday 26 Jan 2015 (Local Time) from KHBG Reporting Station
Clear Clear  
Wind Chill: 40°   Ceiling: Unl
Heat Index: 45°   Visibility: 10mi
Dew Point: 34°   Wind: 10mph
Humidity: 65%   Direction: 310°NW
Pressure: 30.04"   Gusts: NA
Location:  31.1996°N, 89.2694°W
Report Text: KHBG 261153Z AUTO 31009KT 10SM CLR 07/01 A3004 RMK AO2 SLP173 T00720011 10122 20067 53013
Loading
Personal Weather Stations






























Interactive Weather Map New forecast layout! Learn more

10-Day Weather Forecast

Advertisements
Track Severe Weather on mobile